Time;durP1;ratioP1;P1;durP2;ratioP2;P2;SDS_P1;SDS_P2;PMS_P1;PMS_P2;Temp;Humidity;BMP_temperature;BMP_pressure;BME280_temperature;BME280_humidity;BME280_pressure;Samples;Min_cycle;Max_cycle;Signal;HPM_P1;HPM_P2
2021/10/09 00:01:22;;;;;;;61.28;37.30;;;12.90;99.90;;;;;;5070776;28;20530;-76
2021/10/09 00:03:51;;;;;;;49.80;34.22;;;12.90;99.90;;;;;;5063246;28;20025;-76
2021/10/09 00:06:17;;;;;;;53.13;35.22;;;12.90;99.90;;;;;;5065475;28;20067;-76
2021/10/09 00:08:44;;;;;;;50.15;33.65;;;12.90;99.90;;;;;;5073400;28;20060;-76
2021/10/09 00:11:32;;;;;;;49.72;34.50;;;12.90;99.90;;;;;;5071519;28;20033;-76
2021/10/09 00:13:58;;;;;;;50.05;34.78;;;12.80;99.90;;;;;;5072345;28;20480;-76
2021/10/09 00:16:23;;;;;;;48.88;33.40;;;12.80;99.90;;;;;;5057793;28;20063;-77
2021/10/09 00:18:49;;;;;;;49.00;32.92;;;12.80;99.90;;;;;;5065967;28;20024;-76
2021/10/09 00:21:14;;;;;;;48.78;35.30;;;12.80;99.90;;;;;;5065729;28;20078;-76
2021/10/09 00:23:40;;;;;;;55.30;37.17;;;12.80;99.90;;;;;;5059861;28;20396;-76
2021/10/09 00:26:06;;;;;;;54.30;36.53;;;12.80;99.90;;;;;;5068137;28;20045;-77
2021/10/09 00:28:31;;;;;;;51.53;36.25;;;12.80;99.90;;;;;;5058703;28;20377;-77
2021/10/09 00:30:57;;;;;;;56.13;37.25;;;12.70;99.90;;;;;;5071954;28;20063;-76
2021/10/09 00:33:23;;;;;;;57.33;38.90;;;12.70;99.90;;;;;;5066004;28;20044;-76
2021/10/09 00:35:48;;;;;;;55.25;37.72;;;12.70;99.90;;;;;;5048509;28;20542;-76
2021/10/09 00:38:14;;;;;;;59.72;39.70;;;12.70;99.90;;;;;;5065683;28;20490;-76
2021/10/09 00:40:39;;;;;;;54.60;36.33;;;12.70;99.90;;;;;;5069952;28;20083;-76
2021/10/09 00:43:05;;;;;;;55.95;38.10;;;12.70;99.90;;;;;;5075756;28;20099;-76
2021/10/09 00:45:31;;;;;;;61.03;40.70;;;12.60;99.90;;;;;;5060960;28;20043;-76
2021/10/09 00:47:56;;;;;;;55.88;37.33;;;12.60;99.90;;;;;;5062668;28;20047;-76
2021/10/09 00:50:22;;;;;;;61.80;38.85;;;12.60;99.90;;;;;;5062062;28;20096;-77
2021/10/09 00:52:49;;;;;;;57.67;37.20;;;12.60;99.90;;;;;;5064970;28;20438;-76
2021/10/09 00:55:15;;;;;;;61.05;39.42;;;12.60;99.90;;;;;;5063826;28;20024;-76
2021/10/09 00:57:45;;;;;;;55.88;36.28;;;12.60;99.90;;;;;;5067061;28;20036;-76
2021/10/09 01:00:12;;;;;;;63.95;41.72;;;12.60;99.90;;;;;;5066119;28;20143;-76
2021/10/09 01:02:38;;;;;;;59.13;40.25;;;12.60;99.90;;;;;;5068390;28;20058;-76
2021/10/09 01:05:06;;;;;;;64.85;41.55;;;12.60;99.90;;;;;;5067073;28;20388;-76
2021/10/09 01:07:32;;;;;;;58.80;35.45;;;12.60;99.90;;;;;;5068783;28;20032;-75
2021/10/09 01:09:59;;;;;;;70.72;42.08;;;12.60;99.90;;;;;;5059529;28;20020;-75
2021/10/09 01:12:25;;;;;;;67.75;41.78;;;12.50;99.90;;;;;;5059847;28;20504;-76
2021/10/09 01:14:51;;;;;;;56.75;37.65;;;12.50;99.90;;;;;;5065287;28;20029;-76
2021/10/09 01:17:17;;;;;;;60.05;37.63;;;12.50;99.90;;;;;;5060855;28;20031;-76
2021/10/09 01:19:42;;;;;;;65.38;39.25;;;12.50;99.90;;;;;;5063893;28;20039;-75
2021/10/09 01:22:09;;;;;;;58.50;37.47;;;12.50;99.90;;;;;;5061216;28;20087;-76
2021/10/09 01:24:38;;;;;;;64.88;40.95;;;12.50;99.90;;;;;;5068604;28;20115;-75
2021/10/09 01:27:05;;;;;;;63.35;39.85;;;12.50;99.90;;;;;;5064859;28;20145;-76
2021/10/09 01:29:31;;;;;;;65.50;43.15;;;12.50;99.90;;;;;;5067279;28;20108;-76
2021/10/09 01:31:57;;;;;;;65.53;40.53;;;12.50;99.90;;;;;;5056897;28;20103;-75
2021/10/09 01:34:29;;;;;;;59.92;39.05;;;12.50;99.90;;;;;;5063082;28;20469;-76
2021/10/09 01:36:54;;;;;;;60.13;38.42;;;12.50;99.90;;;;;;5060490;28;20028;-76
2021/10/09 01:39:20;;;;;;;58.75;35.97;;;12.40;99.90;;;;;;5062021;28;20155;-76
2021/10/09 01:41:48;;;;;;;66.50;39.22;;;12.50;99.90;;;;;;5061002;28;20079;-76
2021/10/09 01:44:15;;;;;;;59.25;38.58;;;12.50;99.90;;;;;;5071878;28;20055;-75
2021/10/09 01:46:41;;;;;;;76.03;43.55;;;12.50;99.90;;;;;;5069732;28;20400;-77
2021/10/09 01:49:08;;;;;;;77.22;42.55;;;12.40;99.90;;;;;;5062658;28;20421;-76
2021/10/09 01:51:34;;;;;;;95.47;47.20;;;12.40;99.90;;;;;;5061598;28;20535;-76
2021/10/09 01:54:00;;;;;;;76.50;43.22;;;12.40;99.90;;;;;;5058569;28;20122;-76
2021/10/09 01:56:26;;;;;;;76.63;45.50;;;12.40;99.90;;;;;;5070241;28;20032;-76
2021/10/09 01:58:52;;;;;;;61.58;39.03;;;12.30;99.90;;;;;;5062971;28;20055;-76
2021/10/09 02:01:18;;;;;;;62.13;40.30;;;12.30;99.90;;;;;;5061203;28;20032;-76
2021/10/09 02:03:43;;;;;;;67.47;41.80;;;12.30;99.90;;;;;;5069138;28;20024;-76
2021/10/09 02:06:11;;;;;;;63.97;39.17;;;12.30;99.90;;;;;;5066455;28;20070;-76
2021/10/09 02:08:37;;;;;;;57.85;38.53;;;12.30;99.90;;;;;;5070859;28;20040;-76
2021/10/09 02:11:08;;;;;;;65.82;38.67;;;12.30;99.90;;;;;;5056915;28;20025;-76
2021/10/09 02:16:21;;;;;;;66.57;39.97;;;12.30;99.90;;;;;;5060320;28;20059;-76
2021/10/09 02:26:43;;;;;;;58.15;37.13;;;12.30;99.90;;;;;;5070849;28;20059;-76
2021/10/09 02:29:09;;;;;;;62.15;39.50;;;12.20;99.90;;;;;;5072378;28;20036;-76
2021/10/09 02:31:35;;;;;;;61.95;39.75;;;12.20;99.90;;;;;;5067775;28;20112;-76
2021/10/09 02:34:00;;;;;;;72.90;45.67;;;12.20;99.90;;;;;;5069273;28;20052;-76
2021/10/09 02:36:26;;;;;;;62.13;41.88;;;12.10;99.90;;;;;;5064616;28;20035;-76
2021/10/09 02:38:51;;;;;;;57.42;37.53;;;12.10;99.90;;;;;;5063069;28;20488;-76
2021/10/09 02:41:17;;;;;;;67.10;41.20;;;12.10;99.90;;;;;;5061889;28;21084;-76
2021/10/09 02:43:43;;;;;;;60.42;39.03;;;12.10;99.90;;;;;;5070171;28;20441;-76
2021/10/09 02:46:08;;;;;;;61.20;39.03;;;12.10;99.90;;;;;;5063217;28;20443;-76
2021/10/09 02:48:34;;;;;;;63.10;35.65;;;12.10;99.90;;;;;;5062306;28;20029;-76
2021/10/09 02:51:00;;;;;;;65.97;38.80;;;12.10;99.90;;;;;;5061045;28;20495;-76
2021/10/09 02:53:25;;;;;;;66.65;41.08;;;12.00;99.90;;;;;;5065613;28;20036;-76
2021/10/09 02:55:51;;;;;;;64.60;40.53;;;12.00;99.90;;;;;;5079394;28;20107;-76
2021/10/09 02:58:17;;;;;;;65.05;40.63;;;12.00;99.90;;;;;;5076190;28;20028;-76
2021/10/09 03:00:42;;;;;;;61.45;38.15;;;12.00;99.90;;;;;;5069884;28;20448;-77
2021/10/09 03:03:08;;;;;;;59.00;38.10;;;12.00;99.90;;;;;;5074712;28;20116;-76
2021/10/09 03:05:34;;;;;;;55.47;35.80;;;12.00;99.90;;;;;;5068888;28;20346;-76
2021/10/09 03:07:59;;;;;;;61.70;38.05;;;12.00;99.90;;;;;;5063446;28;20037;-76
2021/10/09 03:10:26;;;;;;;60.50;37.55;;;12.00;99.90;;;;;;5063781;28;20096;-77
2021/10/09 03:12:52;;;;;;;64.20;39.80;;;11.90;99.90;;;;;;5072678;28;20028;-76
2021/10/09 03:15:18;;;;;;;64.53;41.55;;;11.90;99.90;;;;;;5064559;28;20051;-76
2021/10/09 03:17:44;;;;;;;65.97;39.90;;;11.90;99.90;;;;;;5062194;28;20469;-76
2021/10/09 03:20:10;;;;;;;58.47;36.00;;;11.90;99.90;;;;;;5065341;28;20036;-76
2021/10/09 03:22:37;;;;;;;60.47;36.17;;;11.90;99.90;;;;;;5068129;28;20034;-76
2021/10/09 03:25:03;;;;;;;66.70;38.38;;;11.80;99.90;;;;;;5064893;28;20056;-76
2021/10/09 03:27:29;;;;;;;62.85;41.00;;;11.80;99.90;;;;;;5063762;28;20089;-76
2021/10/09 03:29:55;;;;;;;60.45;36.42;;;11.70;99.90;;;;;;5067925;28;20370;-76
2021/10/09 03:32:20;;;;;;;77.05;42.17;;;11.80;99.90;;;;;;5062037;28;20025;-76
2021/10/09 03:34:46;;;;;;;58.25;36.50;;;11.80;99.90;;;;;;5065818;28;20028;-76
2021/10/09 03:37:12;;;;;;;57.90;36.95;;;11.70;99.90;;;;;;5066953;28;20040;-76
2021/10/09 03:39:41;;;;;;;56.70;35.08;;;11.70;99.90;;;;;;5069092;28;20025;-77
2021/10/09 03:42:11;;;;;;;60.85;37.75;;;11.70;99.90;;;;;;5065339;28;20029;-76
2021/10/09 03:44:47;;;;;;;63.47;37.17;;;11.70;99.90;;;;;;5067315;28;20060;-77
2021/10/09 03:49:46;;;;;;;55.72;34.17;;;11.60;99.90;;;;;;5067192;28;20035;-76
2021/10/09 03:54:59;;;;;;;59.05;37.03;;;11.60;99.90;;;;;;5065490;28;20098;-76
2021/10/09 03:57:24;;;;;;;64.72;38.08;;;11.50;99.90;;;;;;5071018;28;20032;-76
2021/10/09 03:59:50;;;;;;;59.40;37.95;;;11.50;99.90;;;;;;5066167;28;20021;-76
2021/10/09 04:02:16;;;;;;;66.43;38.33;;;11.50;99.90;;;;;;5063717;28;20033;-76
2021/10/09 04:04:41;;;;;;;59.25;36.67;;;11.40;99.90;;;;;;5068458;28;20025;-75
2021/10/09 04:07:07;;;;;;;60.53;37.05;;;11.40;99.90;;;;;;5060412;28;20114;-78
2021/10/09 04:09:32;;;;;;;57.05;35.88;;;11.50;99.90;;;;;;5071133;28;20035;-77
2021/10/09 04:11:59;;;;;;;58.13;33.60;;;11.50;99.90;;;;;;5061080;28;20032;-76
2021/10/09 04:14:24;;;;;;;58.40;35.08;;;11.50;99.90;;;;;;5067219;28;20024;-77
2021/10/09 04:16:50;;;;;;;56.47;34.85;;;11.40;99.90;;;;;;5064301;28;20098;-76
2021/10/09 04:19:16;;;;;;;59.47;37.15;;;11.50;99.90;;;;;;5063391;28;20499;-77
2021/10/09 04:21:41;;;;;;;54.95;34.75;;;11.40;99.90;;;;;;5062338;28;20101;-77
2021/10/09 04:24:07;;;;;;;58.08;34.53;;;11.40;99.90;;;;;;5061860;28;20056;-76
2021/10/09 04:26:33;;;;;;;62.05;35.80;;;11.40;99.90;;;;;;5057857;28;20044;-76
2021/10/09 04:28:58;;;;;;;63.45;39.25;;;11.40;99.90;;;;;;5059210;28;20108;-77
2021/10/09 04:31:24;;;;;;;61.30;35.60;;;11.30;99.90;;;;;;5067616;28;20445;-76
2021/10/09 04:33:50;;;;;;;57.30;37.47;;;11.30;99.90;;;;;;5069935;28;20040;-75
2021/10/09 04:36:15;;;;;;;61.50;37.17;;;11.30;99.90;;;;;;5073007;28;20114;-77
2021/10/09 04:38:41;;;;;;;63.58;36.60;;;11.30;99.90;;;;;;5059795;28;20032;-76
2021/10/09 04:41:07;;;;;;;64.47;37.30;;;11.30;99.90;;;;;;5071729;28;20365;-76
2021/10/09 04:43:32;;;;;;;54.92;34.50;;;11.30;99.90;;;;;;5075849;28;20573;-76
2021/10/09 04:45:58;;;;;;;57.80;35.00;;;11.30;99.90;;;;;;5075996;28;20028;-76
2021/10/09 04:48:23;;;;;;;47.70;30.63;;;11.30;99.90;;;;;;5072370;28;20035;-77
2021/10/09 04:50:49;;;;;;;51.08;29.83;;;11.20;99.90;;;;;;5068868;28;20147;-76
2021/10/09 04:53:15;;;;;;;49.50;31.00;;;11.20;99.90;;;;;;5071229;28;20496;-76
2021/10/09 04:55:40;;;;;;;59.35;35.53;;;11.20;99.90;;;;;;5075161;28;20507;-76
2021/10/09 04:58:06;;;;;;;58.35;37.20;;;11.20;99.90;;;;;;5064336;28;20032;-76
2021/10/09 05:00:32;;;;;;;61.78;37.13;;;11.10;99.90;;;;;;5060491;28;20029;-76
2021/10/09 05:02:57;;;;;;;60.42;37.58;;;11.10;99.90;;;;;;5065473;28;20024;-76
2021/10/09 05:05:23;;;;;;;53.92;35.40;;;11.10;99.90;;;;;;5068561;28;20029;-76
2021/10/09 05:07:49;;;;;;;55.40;34.90;;;11.10;99.90;;;;;;5064270;28;20440;-77
2021/10/09 05:10:15;;;;;;;55.42;33.67;;;11.10;99.90;;;;;;5072859;28;20020;-77
2021/10/09 05:12:41;;;;;;;52.97;32.38;;;11.10;99.90;;;;;;5066979;28;20566;-76
2021/10/09 05:15:07;;;;;;;54.58;33.90;;;11.10;99.90;;;;;;5056277;28;20923;-77
2021/10/09 05:17:32;;;;;;;56.10;34.70;;;11.10;99.90;;;;;;5067268;28;20024;-76
2021/10/09 05:19:58;;;;;;;57.28;34.58;;;11.00;99.90;;;;;;5068004;28;20708;-76
2021/10/09 05:22:24;;;;;;;63.80;37.58;;;11.00;99.90;;;;;;5063708;28;20104;-77
2021/10/09 05:24:53;;;;;;;57.75;35.22;;;11.00;99.90;;;;;;5075174;28;20480;-77
2021/10/09 05:27:18;;;;;;;66.63;35.30;;;11.00;99.90;;;;;;5068278;28;20073;-76
2021/10/09 05:29:44;;;;;;;55.30;33.25;;;10.90;99.90;;;;;;5064510;28;20103;-77
2021/10/09 05:32:10;;;;;;;51.55;33.40;;;10.90;99.90;;;;;;5065700;28;20021;-76
2021/10/09 05:34:36;;;;;;;52.33;32.75;;;10.80;99.90;;;;;;5071268;28;20444;-76
2021/10/09 05:37:02;;;;;;;50.05;30.95;;;10.80;99.90;;;;;;5074294;28;20016;-77
2021/10/09 05:39:28;;;;;;;40.60;26.63;;;10.80;99.90;;;;;;5062032;28;20028;-75
2021/10/09 05:41:53;;;;;;;36.47;23.90;;;10.80;99.90;;;;;;5069301;28;20028;-76
2021/10/09 05:44:19;;;;;;;38.33;24.38;;;10.80;99.90;;;;;;5057942;28;20025;-76
2021/10/09 05:46:45;;;;;;;35.30;23.35;;;10.80;99.90;;;;;;5065937;28;20044;-77
2021/10/09 05:49:12;;;;;;;43.38;26.83;;;10.70;99.90;;;;;;5068084;28;20082;-76
2021/10/09 05:51:42;;;;;;;47.17;29.30;;;10.70;99.90;;;;;;5057649;28;20037;-76
2021/10/09 06:43:01;;;;;;;186.80;47.10;;;10.60;99.90;;;;;;5076832;28;20059;-76
2021/10/09 06:46:04;;;;;;;47.85;31.80;;;10.60;99.90;;;;;;5088390;28;20431;-76
2021/10/09 06:59:37;;;;;;;51.08;32.58;;;10.70;99.90;;;;;;5091292;28;20031;-76
2021/10/09 07:02:03;;;;;;;52.83;34.78;;;10.80;99.90;;;;;;5080999;28;20039;-76
2021/10/09 07:04:29;;;;;;;51.25;34.50;;;10.70;99.90;;;;;;5092107;28;20414;-75
2021/10/09 07:06:56;;;;;;;52.58;34.05;;;10.80;99.90;;;;;;5070918;28;20108;-77
2021/10/09 07:09:21;;;;;;;54.30;35.10;;;10.70;99.90;;;;;;5092289;28;20043;-76
2021/10/09 07:11:47;;;;;;;61.55;37.45;;;10.80;99.90;;;;;;5088429;28;20067;-77
2021/10/09 07:14:13;;;;;;;57.17;38.15;;;10.70;99.90;;;;;;5083531;28;20127;-76
2021/10/09 07:16:39;;;;;;;56.60;36.22;;;10.60;99.90;;;;;;5081468;28;20454;-76
2021/10/09 07:19:04;;;;;;;61.45;38.47;;;10.70;99.90;;;;;;5085625;28;20020;-77
2021/10/09 07:21:30;;;;;;;65.45;40.17;;;10.70;99.90;;;;;;5060118;28;20052;-77
2021/10/09 07:23:56;;;;;;;60.75;38.60;;;10.80;99.90;;;;;;5092910;28;20020;-76
2021/10/09 07:26:22;;;;;;;60.20;37.90;;;10.80;99.90;;;;;;5083503;28;20044;-76
2021/10/09 07:28:47;;;;;;;62.78;39.08;;;10.80;99.90;;;;;;5070969;28;20033;-77
2021/10/09 07:31:13;;;;;;;58.75;37.38;;;10.80;99.90;;;;;;5088184;28;20025;-77
2021/10/09 07:33:39;;;;;;;79.55;44.22;;;10.90;99.90;;;;;;5068519;28;20496;-76
2021/10/09 07:36:04;;;;;;;70.95;42.33;;;11.00;99.90;;;;;;5069166;28;20032;-76
2021/10/09 07:38:30;;;;;;;67.07;38.88;;;11.00;99.90;;;;;;5087664;28;20032;-76
2021/10/09 07:40:56;;;;;;;75.70;44.10;;;11.00;99.90;;;;;;5077563;28;20035;-77
2021/10/09 07:43:22;;;;;;;85.10;49.15;;;10.90;99.90;;;;;;5083667;28;20035;-76
2021/10/09 07:45:48;;;;;;;73.97;42.67;;;11.00;99.90;;;;;;5092402;28;20032;-77
2021/10/09 07:48:14;;;;;;;73.40;42.90;;;11.10;99.90;;;;;;5084021;28;20032;-77
2021/10/09 07:50:40;;;;;;;66.38;41.25;;;11.10;99.90;;;;;;5066748;28;20074;-76
2021/10/09 07:53:05;;;;;;;72.97;44.45;;;11.20;99.90;;;;;;5053286;28;20035;-77
2021/10/09 07:55:31;;;;;;;73.28;42.67;;;11.30;99.90;;;;;;5090404;28;20025;-76
2021/10/09 07:57:57;;;;;;;75.10;43.38;;;11.30;99.90;;;;;;5069915;28;20048;-76
2021/10/09 08:00:22;;;;;;;81.07;46.60;;;11.40;99.90;;;;;;5082790;28;20071;-76
2021/10/09 08:02:50;;;;;;;75.03;42.40;;;11.40;99.90;;;;;;5087733;28;20078;-76
2021/10/09 08:05:16;;;;;;;81.65;46.50;;;11.50;99.90;;;;;;5076396;28;20048;-76
2021/10/09 08:07:42;;;;;;;88.70;50.65;;;11.50;99.90;;;;;;5088364;28;20111;-76
2021/10/09 08:10:08;;;;;;;103.45;53.85;;;11.50;99.90;;;;;;5081292;28;20020;-76
2021/10/09 08:12:34;;;;;;;93.35;51.42;;;11.60;99.90;;;;;;5076230;28;20017;-76
2021/10/09 08:15:00;;;;;;;84.85;50.28;;;11.60;99.90;;;;;;5083753;28;20483;-76
2021/10/09 08:17:25;;;;;;;100.20;54.20;;;11.60;99.90;;;;;;5065630;28;20032;-77
2021/10/09 08:19:51;;;;;;;97.60;51.80;;;11.70;99.90;;;;;;5083426;28;20470;-76
2021/10/09 08:22:18;;;;;;;101.00;53.40;;;11.70;99.90;;;;;;5061577;28;20032;-76
2021/10/09 08:40:48;;;;;;;100.82;52.78;;;12.20;99.90;;;;;;5074045;28;20485;-75
2021/10/09 08:43:14;;;;;;;91.82;52.35;;;12.20;99.90;;;;;;5071192;28;20035;-75
2021/10/09 08:45:40;;;;;;;97.90;55.05;;;12.20;99.90;;;;;;5085746;28;20024;-74
2021/10/09 08:48:06;;;;;;;99.10;55.00;;;12.20;99.90;;;;;;5056722;28;20100;-75
2021/10/09 08:50:32;;;;;;;88.57;54.00;;;12.30;99.90;;;;;;5064260;28;20025;-75
2021/10/09 08:53:00;;;;;;;84.97;51.05;;;12.40;99.90;;;;;;5085888;28;20563;-76
2021/10/09 08:55:29;;;;;;;95.07;55.38;;;12.50;99.90;;;;;;5074425;28;20036;-76
2021/10/09 08:58:02;;;;;;;88.13;52.65;;;12.60;99.90;;;;;;5085570;28;20017;-77
2021/10/09 09:00:39;;;;;;;80.88;47.95;;;12.70;99.90;;;;;;5072454;28;20024;-75
2021/10/09 09:03:12;;;;;;;83.45;50.10;;;12.70;99.90;;;;;;5083426;28;20024;-75
2021/10/09 09:05:58;;;;;;;81.32;49.03;;;12.80;99.90;;;;;;5064395;28;20021;-76
2021/10/09 09:41:21;;;;;;;66.22;41.75;;;14.40;99.90;;;;;;5088111;28;20032;-76
2021/10/09 09:43:48;;;;;;;60.28;37.35;;;14.50;99.90;;;;;;5071695;28;20028;-76
2021/10/09 09:46:15;;;;;;;66.75;40.30;;;14.70;99.90;;;;;;5084800;28;20027;-76
2021/10/09 09:48:46;;;;;;;61.75;39.42;;;14.80;99.90;;;;;;5076346;28;20066;-76
2021/10/09 09:51:16;;;;;;;64.85;38.60;;;14.90;99.90;;;;;;5064679;28;20096;-76
2021/10/09 09:53:43;;;;;;;61.75;36.33;;;15.00;99.90;;;;;;5067487;28;20055;-76
2021/10/09 09:56:13;;;;;;;55.50;36.97;;;15.20;99.90;;;;;;5078239;28;20043;-76
2021/10/09 09:58:41;;;;;;;67.55;39.50;;;15.20;99.90;;;;;;5079553;28;20031;-75
2021/10/09 10:01:09;;;;;;;67.70;38.40;;;15.30;99.90;;;;;;5078442;28;20442;-75
2021/10/09 10:03:36;;;;;;;59.65;35.40;;;15.40;99.90;;;;;;5092097;28;20368;-76
2021/10/09 10:06:05;;;;;;;58.08;35.78;;;15.50;99.90;;;;;;5083621;28;20397;-75
2021/10/09 10:08:32;;;;;;;63.13;35.45;;;15.60;99.90;;;;;;5084031;28;20040;-75
2021/10/09 10:11:03;;;;;;;57.75;36.42;;;15.70;99.90;;;;;;5091594;28;20059;-75
2021/10/09 10:13:32;;;;;;;51.95;34.10;;;15.80;99.90;;;;;;5079647;28;20383;-76
2021/10/09 10:16:03;;;;;;;51.50;32.53;;;15.80;99.90;;;;;;5086126;28;20021;-76
2021/10/09 10:18:44;;;;;;;54.67;34.38;;;15.90;99.90;;;;;;5071887;28;20044;-76
2021/10/09 10:21:14;;;;;;;54.50;32.72;;;16.10;99.90;;;;;;5065502;28;20029;-76
2021/10/09 10:23:45;;;;;;;48.15;32.28;;;16.10;99.90;;;;;;5064321;28;20016;-75
2021/10/09 10:26:22;;;;;;;49.63;32.45;;;16.10;99.90;;;;;;5085896;28;20449;-76
2021/10/09 10:29:13;;;;;;;49.30;30.98;;;16.20;99.90;;;;;;5088890;28;20058;-76
2021/10/09 10:32:10;;;;;;;53.65;29.88;;;16.30;99.90;;;;;;5063929;28;20099;-77
2021/10/09 10:34:36;;;;;;;47.15;28.38;;;16.50;99.90;;;;;;5083061;28;20028;-77
2021/10/09 10:37:01;;;;;;;40.63;28.45;;;16.60;99.90;;;;;;5071763;28;20037;-76
2021/10/09 10:39:41;;;;;;;47.15;29.77;;;16.80;99.90;;;;;;5091077;28;20499;-75
2021/10/09 10:42:26;;;;;;;46.53;29.23;;;16.90;99.90;;;;;;5083737;28;20078;-76
2021/10/09 10:45:08;;;;;;;45.28;28.05;;;16.90;99.90;;;;;;5085055;28;20028;-77
2021/10/09 10:47:37;;;;;;;43.78;28.05;;;17.00;99.90;;;;;;5062580;28;20041;-76
2021/10/09 10:50:09;;;;;;;45.20;31.45;;;17.10;99.90;;;;;;5082696;28;20471;-76
2021/10/09 10:53:01;;;;;;;50.95;30.63;;;17.20;99.90;;;;;;5068375;28;20096;-77
2021/10/09 10:56:06;;;;;;;48.67;30.08;;;17.30;99.90;;;;;;5089825;28;20032;-76
2021/10/09 10:58:32;;;;;;;44.28;26.50;;;17.20;99.90;;;;;;5085871;28;20031;-76
2021/10/09 11:01:19;;;;;;;43.38;27.85;;;17.40;99.90;;;;;;5074299;28;20024;-76
2021/10/09 11:03:46;;;;;;;44.35;27.13;;;17.30;99.90;;;;;;5064769;28;20632;-76
2021/10/09 11:06:13;;;;;;;41.40;26.98;;;17.30;99.90;;;;;;5085027;28;20150;-76
2021/10/09 11:08:42;;;;;;;44.28;27.33;;;17.40;99.90;;;;;;5086901;28;20028;-75
2021/10/09 11:11:08;;;;;;;45.75;27.77;;;17.60;99.90;;;;;;5077034;28;20032;-77
2021/10/09 11:13:34;;;;;;;41.22;27.40;;;17.50;99.90;;;;;;5063374;28;20024;-78
2021/10/09 11:16:01;;;;;;;43.28;27.35;;;17.50;99.90;;;;;;5087845;28;20024;-76
2021/10/09 11:18:27;;;;;;;43.35;29.88;;;17.60;99.90;;;;;;5085899;28;20091;-76
2021/10/09 11:20:59;;;;;;;38.10;24.05;;;17.60;99.90;;;;;;5068130;28;20450;-76
2021/10/09 11:23:24;;;;;;;41.35;29.35;;;17.70;99.90;;;;;;5089986;28;20043;-76
2021/10/09 11:25:50;;;;;;;43.55;27.00;;;17.60;99.90;;;;;;5080689;28;20484;-76
2021/10/09 11:28:30;;;;;;;42.85;26.55;;;17.60;99.90;;;;;;5078881;28;20038;-76
2021/10/09 11:30:56;;;;;;;38.25;26.02;;;17.80;99.90;;;;;;5077712;28;20032;-76
2021/10/09 11:33:28;;;;;;;43.60;26.95;;;17.70;99.90;;;;;;5067056;28;20068;-76
2021/10/09 11:35:54;;;;;;;40.92;27.23;;;17.90;99.90;;;;;;5085291;28;20025;-76
2021/10/09 11:38:25;;;;;;;44.55;27.45;;;17.90;99.90;;;;;;5083250;28;20095;-76
2021/10/09 11:40:57;;;;;;;42.42;26.90;;;17.90;99.90;;;;;;5079377;28;20086;-76
2021/10/09 11:46:14;;;;;;;35.90;23.83;;;17.90;99.90;;;;;;5085915;28;20032;-75
2021/10/09 11:54:29;;;;;;;40.55;25.25;;;18.10;99.90;;;;;;5084873;28;20105;-75
2021/10/09 11:56:55;;;;;;;39.55;24.77;;;18.20;99.90;;;;;;5088040;28;20028;-75
2021/10/09 11:59:38;;;;;;;40.53;25.73;;;18.30;99.90;;;;;;5076891;28;20131;-76
2021/10/09 12:02:04;;;;;;;37.22;24.30;;;18.20;99.90;;;;;;5067407;28;20042;-75
2021/10/09 12:04:30;;;;;;;36.65;25.42;;;18.30;99.90;;;;;;5069227;28;20029;-74
2021/10/09 12:07:18;;;;;;;34.60;21.85;;;18.30;99.90;;;;;;5061112;28;20028;-75
2021/10/09 12:10:05;;;;;;;37.60;23.98;;;18.30;99.90;;;;;;5066284;28;20044;-75
2021/10/09 12:12:35;;;;;;;32.05;21.33;;;18.40;99.90;;;;;;5075337;28;20028;-75
2021/10/09 12:15:02;;;;;;;33.63;23.05;;;18.40;99.90;;;;;;5071895;28;20081;-75
2021/10/09 12:17:36;;;;;;;36.65;22.52;;;18.50;99.90;;;;;;5090465;28;20032;-75
2021/10/09 12:20:05;;;;;;;31.73;21.58;;;18.40;99.90;;;;;;5080203;28;20118;-75
2021/10/09 12:22:42;;;;;;;36.25;21.95;;;18.40;99.90;;;;;;5059552;28;20373;-75
2021/10/09 12:25:18;;;;;;;30.58;22.60;;;18.40;99.90;;;;;;5060975;28;20036;-75
2021/10/09 12:27:52;;;;;;;31.00;21.30;;;18.40;99.90;;;;;;5088076;28;20029;-75
2021/10/09 12:30:17;;;;;;;34.30;21.42;;;18.30;99.90;;;;;;5077846;28;20027;-76
2021/10/09 12:32:46;;;;;;;33.38;22.02;;;18.30;99.90;;;;;;5079071;28;20029;-75
2021/10/09 12:35:20;;;;;;;35.83;20.70;;;18.30;99.90;;;;;;5080685;28;20023;-76
2021/10/09 12:37:53;;;;;;;28.20;21.17;;;18.40;99.90;;;;;;5086440;28;20036;-76
2021/10/09 12:40:19;;;;;;;35.83;22.33;;;18.40;99.90;;;;;;5068964;28;20029;-76
2021/10/09 12:42:51;;;;;;;35.22;21.83;;;18.50;99.90;;;;;;5081003;28;20032;-76
2021/10/09 12:45:17;;;;;;;35.33;21.47;;;18.40;99.90;;;;;;5088197;28;20050;-75
2021/10/09 12:47:44;;;;;;;32.15;20.58;;;18.40;99.90;;;;;;5072013;28;20495;-76
2021/10/09 12:50:10;;;;;;;35.72;21.83;;;18.40;99.90;;;;;;5061251;28;20528;-75
2021/10/09 12:52:36;;;;;;;31.85;19.48;;;18.40;99.90;;;;;;5077866;28;20036;-77
2021/10/09 12:55:03;;;;;;;26.35;18.75;;;18.40;99.90;;;;;;5076432;28;20380;-75
2021/10/09 12:57:30;;;;;;;32.00;19.88;;;18.30;99.90;;;;;;5080593;28;20024;-75
2021/10/09 12:59:56;;;;;;;34.15;19.60;;;18.30;99.90;;;;;;5085605;28;20476;-75
2021/10/09 13:02:22;;;;;;;26.30;17.00;;;18.30;99.90;;;;;;5078997;28;20099;-76
2021/10/09 13:04:47;;;;;;;29.80;16.73;;;18.30;99.90;;;;;;5070635;28;20536;-75
2021/10/09 13:07:13;;;;;;;26.73;15.90;;;18.30;99.90;;;;;;5067913;28;20385;-76
2021/10/09 13:09:39;;;;;;;28.88;19.42;;;18.30;99.90;;;;;;5068654;28;20027;-75
2021/10/09 13:12:07;;;;;;;27.08;16.73;;;18.30;99.90;;;;;;5069561;28;20036;-76
2021/10/09 13:14:32;;;;;;;28.35;16.90;;;18.30;99.90;;;;;;5061784;28;20031;-76
2021/10/09 13:16:59;;;;;;;26.50;15.43;;;18.30;99.90;;;;;;5064925;28;20087;-75
2021/10/09 13:19:25;;;;;;;23.08;14.52;;;18.30;99.90;;;;;;5070326;28;20411;-75
2021/10/09 13:21:50;;;;;;;21.65;14.18;;;18.30;99.90;;;;;;5069717;28;20026;-75
2021/10/09 13:24:16;;;;;;;25.25;17.30;;;18.30;99.90;;;;;;5066075;28;20025;-74
2021/10/09 13:26:41;;;;;;;25.02;16.60;;;18.40;99.90;;;;;;5074692;28;20045;-74
2021/10/09 13:29:08;;;;;;;24.35;15.68;;;18.30;99.90;;;;;;5062828;28;20059;-74
2021/10/09 13:31:34;;;;;;;19.60;14.05;;;18.20;99.90;;;;;;5065499;28;20016;-75
2021/10/09 13:34:00;;;;;;;20.30;14.77;;;18.10;99.90;;;;;;5067606;28;20033;-75
2021/10/09 13:36:26;;;;;;;21.98;13.77;;;18.10;99.90;;;;;;5063792;28;20099;-75
2021/10/09 13:38:53;;;;;;;21.90;15.77;;;18.20;99.90;;;;;;5075888;28;20481;-75
2021/10/09 13:41:19;;;;;;;24.23;15.30;;;18.10;99.90;;;;;;5068524;28;20066;-75
2021/10/09 13:43:45;;;;;;;27.83;16.40;;;18.10;99.90;;;;;;5067589;28;20045;-75
2021/10/09 13:46:16;;;;;;;23.90;15.32;;;18.20;99.90;;;;;;5061066;28;20104;-74
2021/10/09 13:48:43;;;;;;;29.63;16.15;;;18.20;99.90;;;;;;5073381;28;20464;-74
2021/10/09 13:51:13;;;;;;;24.98;14.55;;;18.20;99.90;;;;;;5065424;28;20055;-74
2021/10/09 13:53:43;;;;;;;21.13;13.70;;;18.10;99.90;;;;;;5071411;28;20093;-74
2021/10/09 13:56:09;;;;;;;21.77;14.82;;;18.10;99.90;;;;;;5062079;28;20025;-74
2021/10/09 13:58:35;;;;;;;22.20;14.57;;;18.10;99.90;;;;;;5068958;28;20035;-74
2021/10/09 14:01:01;;;;;;;24.67;15.48;;;18.10;99.90;;;;;;5066436;28;20107;-74
2021/10/09 14:03:29;;;;;;;24.77;14.65;;;18.10;99.90;;;;;;5074049;28;20028;-75
2021/10/09 14:05:55;;;;;;;25.98;17.05;;;18.10;99.90;;;;;;5062954;28;20488;-74
2021/10/09 14:08:20;;;;;;;24.95;13.80;;;18.10;99.90;;;;;;5070093;28;20295;-75
2021/10/09 14:10:46;;;;;;;25.17;14.45;;;18.10;99.90;;;;;;5071924;28;20039;-74
2021/10/09 14:13:12;;;;;;;25.60;15.32;;;18.00;99.90;;;;;;5065812;28;20036;-74
2021/10/09 14:15:41;;;;;;;24.60;13.75;;;18.00;99.90;;;;;;5058223;28;20033;-74
2021/10/09 14:18:06;;;;;;;18.50;13.90;;;18.00;99.90;;;;;;5060465;28;20082;-75
2021/10/09 14:20:32;;;;;;;22.02;14.98;;;18.10;99.90;;;;;;5056722;28;20538;-74
2021/10/09 14:23:01;;;;;;;24.48;15.63;;;18.10;99.90;;;;;;5064542;28;20039;-75
2021/10/09 14:25:31;;;;;;;20.00;14.60;;;18.10;99.90;;;;;;5072622;28;20040;-74
2021/10/09 14:27:58;;;;;;;20.65;16.30;;;18.10;99.90;;;;;;5073088;28;20119;-74
2021/10/09 14:30:24;;;;;;;27.05;15.00;;;18.10;99.90;;;;;;5064307;28;20099;-74
2021/10/09 14:32:50;;;;;;;19.90;14.35;;;18.00;99.90;;;;;;5060173;28;20462;-74
2021/10/09 14:35:15;;;;;;;18.73;13.30;;;18.00;99.90;;;;;;5074095;28;20092;-74
2021/10/09 14:37:42;;;;;;;24.40;14.60;;;18.10;99.90;;;;;;5071428;28;20490;-74
2021/10/09 14:40:08;;;;;;;22.65;14.15;;;18.00;99.90;;;;;;5076708;28;20031;-74
2021/10/09 14:42:34;;;;;;;29.77;15.90;;;18.00;99.90;;;;;;5065622;28;20099;-75